Flight Track Log - Related Links

Times and Time Zones

All times are in EDT time to prevent confusion due to time zone crossing. See the EJA583 flight status page for this flight to view local times or setup timezone preferences in your user account.

Time Position Orientation Groundspeed Altitude Reporting Facility
EDT Latitude Longitude Course Direction KTS MPH feet Rate Location/Type
Wed 05:23:11 PM 34.0464 -102.4642 127° Southeast 346 398 14,700  Level Fort Worth Center
Wed 05:24:11 PM 33.9914 -102.3758 127° Southeast 301 346 15,500 1,250 Climbing Fort Worth Center
Wed 05:25:11 PM 33.9383 -102.2925 127° Southeast 326 375 17,200 1,900 Climbing Fort Worth Center
Wed 05:26:11 PM 33.8689 -102.1986 132° Southeast 339 390 19,300 1,950 Climbing Fort Worth Center
Wed 05:27:11 PM 33.8050 -102.1228 135° Southeast 354 407 21,100 1,850 Climbing Fort Worth Center
Wed 05:28:11 PM 33.7269 -102.0336 136° Southeast 354 407 23,000 2,350 Climbing Fort Worth Center
Wed 05:29:11 PM 33.6611 -101.9503 133° Southeast 354 407 25,800 2,479 Climbing Fort Worth Center
Wed 05:30:12 PM 33.6058 -101.8600 126° Southeast 343 395 28,000 1,550 Climbing Fort Worth Center
Wed 05:31:11 PM 33.5489 -101.7600 124° Southeast 343 395 28,900 504 Climbing Fort Worth Center
Wed 05:32:11 PM 33.4842 -101.6447 124° Southeast 374 430 29,000 50 Climbing Fort Worth Center
Wed 05:33:11 PM 33.4272 -101.5375 122° Southeast 423 487 29,000  Level Fort Worth Center
Wed 05:34:11 PM 33.3519 -101.4072 125° Southeast 431 496 29,000  Level Fort Worth Center
Wed 05:35:11 PM 33.2950 -101.2978 122° Southeast 431 496 29,000  Level Fort Worth Center
Wed 05:36:11 PM 33.2197 -101.1678 125° Southeast 431 496 29,000  Level Fort Worth Center
Wed 05:37:11 PM 33.1622 -101.0586 122° Southeast 431 496 29,000  Level Fort Worth Center
Wed 05:38:11 PM 33.0867 -100.9292 125° Southeast 431 496 29,000  Level Fort Worth Center
Wed 05:39:11 PM 33.0189 -100.8125 125° Southeast 431 496 29,000  Level Fort Worth Center
Wed 05:40:11 PM 32.9533 -100.6911 123° Southeast 431 496 29,000  Level Fort Worth Center
Wed 05:41:11 PM 32.8853 -100.5750 125° Southeast 431 496 29,000  Level Fort Worth Center
Wed 05:42:11 PM 32.8194 -100.4564 123° Southeast 431 496 29,000  Level Fort Worth Center
Wed 05:43:11 PM 32.7511 -100.3356 124° Southeast 431 496 29,000 -100 Level Fort Worth Center
Wed 05:44:11 PM 32.6592 -100.2511 142° Southeast 419 482 28,800 -800 Descending Fort Worth Center
Wed 05:45:11 PM 32.5669 -100.1767 146° Southeast 432 497 27,400 -1,500 Descending Fort Worth Center
Wed 05:46:11 PM 32.4644 -100.0922 145° Southeast 444 511 25,800 -1,800 Descending Fort Worth Center
Wed 05:47:11 PM 32.3661 -100.0083 144° Southeast 444 511 23,800 -1,650 Descending Fort Worth Center
Wed 05:48:11 PM 32.2867 -99.9078 133° Southeast 444 511 22,500 -1,400 Descending Fort Worth Center
Wed 05:49:11 PM 32.2264 -99.7881 121° Southeast 419 482 21,000 -1,550 Descending Fort Worth Center
Wed 05:50:11 PM 32.1847 -99.6667 112° Southeast 405 466 19,400 -1,587 Descending Fort Worth Center
Wed 05:51:12 PM 32.1386 -99.5528 116° Southeast 399 459 17,800 -1,800 Descending Fort Worth Center
Wed 05:52:11 PM 32.0944 -99.4439 116° Southeast 379 436 15,800 -2,017 Descending Fort Worth Center
Wed 05:53:11 PM 32.0522 -99.3425 116° Southeast 358 412 13,800 -2,628 Descending Fort Worth Center
Wed 05:54:12 PM 32.0119 -99.2461 116° Southeast 339 390 10,500 -2,850 Descending Fort Worth Center
Wed 05:55:11 PM 31.9758 -99.1547 115° Southeast 322 371 8,100 -2,441 Descending Fort Worth Center

Login

Don't have an account? Register now (free) for customized features, flight alerts, and more!